createdAt,value
2022-08-02T00:05:08.116Z,22.58
2022-08-02T00:34:33.982Z,22.27
2022-08-02T01:02:59.792Z,22.05
2022-08-02T01:32:14.447Z,21.81
2022-08-02T02:01:18.516Z,21.6
2022-08-02T02:29:50.682Z,21.35
2022-08-02T02:58:58.822Z,21.01
2022-08-02T03:28:14.008Z,20.5
2022-08-02T03:57:35.673Z,20.98
2022-08-02T04:26:50.083Z,20.66
2022-08-02T04:55:32.304Z,21.05
2022-08-02T05:24:49.824Z,21.34
2022-08-02T05:54:05.327Z,21.81
2022-08-02T06:23:24.320Z,22.67
2022-08-02T06:52:42.987Z,24.04
2022-08-02T07:22:02.292Z,25.33
2022-08-02T07:50:46.160Z,25.4
2022-08-02T08:20:07.720Z,26.12
2022-08-02T08:49:30.977Z,26.87
2022-08-02T09:18:52.297Z,27.34
2022-08-02T09:48:20.632Z,28.17
2022-08-02T10:17:57.834Z,29.62
2022-08-02T10:47:28.940Z,31.09
2022-08-02T11:16:47.891Z,31.35
2022-08-02T11:46:24.866Z,31.29
2022-08-02T12:15:51.448Z,32.49
2022-08-02T12:45:15.723Z,33.37
2022-08-02T13:14:27.939Z,33.27
2022-08-02T13:43:52.968Z,32.97
2022-08-02T14:12:25.421Z,33.64
2022-08-02T14:41:58.674Z,33.13
2022-08-02T15:10:26.340Z,34
2022-08-02T15:39:49.595Z,34.88
2022-08-02T16:08:55.258Z,34.83
2022-08-02T16:37:50.567Z,34.78
2022-08-02T17:06:27.618Z,35.58
2022-08-02T17:35:17.088Z,36.13
2022-08-02T18:03:59.537Z,34.15
2022-08-02T18:33:56.292Z,32.91
2022-08-02T19:01:51.437Z,31.36
2022-08-02T19:30:27.099Z,30.88
2022-08-02T19:59:33.696Z,29.34
2022-08-02T20:28:13.087Z,28.33
2022-08-02T20:57:12.207Z,27.59
2022-08-02T21:26:32.886Z,26.85
2022-08-02T21:55:14.919Z,25.88
2022-08-02T22:23:53.975Z,25.11
2022-08-02T22:52:50.564Z,24.21
2022-08-02T23:21:45.671Z,24.07
2022-08-02T23:50:13.438Z,23.58
